createdAt,value
2023-02-09T00:01:31.467Z,2.95
2023-02-09T00:03:59.790Z,2.94
2023-02-09T00:06:29.842Z,2.91
2023-02-09T00:08:58.322Z,2.90
2023-02-09T00:11:48.377Z,2.86
2023-02-09T00:14:21.539Z,2.87
2023-02-09T00:16:49.722Z,2.88
2023-02-09T00:19:18.569Z,2.82
2023-02-09T00:21:46.425Z,2.88
2023-02-09T00:24:14.901Z,2.78
2023-02-09T00:26:43.281Z,2.89
2023-02-09T00:29:11.764Z,2.97
2023-02-09T00:31:41.147Z,2.97
2023-02-09T00:34:09.481Z,3.01
2023-02-09T00:36:37.237Z,3.00
2023-02-09T00:39:05.497Z,3.01
2023-02-09T00:41:59.601Z,3.05
2023-02-09T00:44:28.919Z,3.03
2023-02-09T00:46:58.003Z,3.07
2023-02-09T00:49:25.814Z,3.06
2023-02-09T00:51:53.922Z,3.04
2023-02-09T00:54:21.625Z,3.07
2023-02-09T00:56:49.497Z,3.01
2023-02-09T00:59:17.969Z,2.95
2023-02-09T01:01:45.782Z,2.99
2023-02-09T01:04:14.897Z,2.95
2023-02-09T01:06:42.663Z,2.94
2023-02-09T01:09:10.338Z,2.94
2023-02-09T01:11:39.831Z,2.95
2023-02-09T01:14:07.626Z,3.00
2023-02-09T01:16:35.496Z,3.04
2023-02-09T01:19:04.834Z,3.09
2023-02-09T01:21:33.991Z,3.00
2023-02-09T01:24:02.388Z,2.92
2023-02-09T01:26:30.200Z,2.90
2023-02-09T01:28:57.895Z,2.86
2023-02-09T01:31:27.623Z,2.83
2023-02-09T01:33:56.822Z,2.80
2023-02-09T01:36:27.708Z,2.85
2023-02-09T01:38:58.406Z,2.90
2023-02-09T01:41:27.315Z,2.88
2023-02-09T01:43:59.357Z,2.90
2023-02-09T01:46:30.592Z,2.95
2023-02-09T01:49:04.462Z,2.93
2023-02-09T01:51:35.833Z,2.86
2023-02-09T01:54:09.225Z,2.82
2023-02-09T01:56:39.970Z,2.75
2023-02-09T01:59:08.900Z,2.65
2023-02-09T02:01:38.899Z,2.65
2023-02-09T02:04:07.394Z,2.60
2023-02-09T02:06:37.558Z,2.58
2023-02-09T02:09:11.415Z,2.56
2023-02-09T02:11:41.081Z,2.56
2023-02-09T02:14:29.413Z,2.67
2023-02-09T02:17:09.075Z,2.69
2023-02-09T02:20:23.650Z,2.75
2023-02-09T02:23:16.741Z,2.77
2023-02-09T02:26:13.281Z,2.81
2023-02-09T02:28:46.027Z,2.79
2023-02-09T02:31:32.913Z,2.82
2023-02-09T02:34:07.422Z,2.82
2023-02-09T02:36:43.636Z,2.81
2023-02-09T02:39:18.967Z,2.78
2023-02-09T02:42:10.680Z,2.80
2023-02-09T02:44:42.883Z,2.73
2023-02-09T02:47:16.931Z,2.77
2023-02-09T02:49:50.433Z,2.83
2023-02-09T02:52:18.307Z,2.83
2023-02-09T02:54:51.075Z,2.82
2023-02-09T02:57:22.424Z,2.78
2023-02-09T02:59:55.877Z,2.79
2023-02-09T03:02:30.950Z,2.78
2023-02-09T03:05:00.722Z,2.82
2023-02-09T03:07:28.518Z,2.78
2023-02-09T03:09:57.827Z,2.75
2023-02-09T03:12:35.361Z,2.75
2023-02-09T03:15:19.470Z,2.73
2023-02-09T03:17:57.773Z,2.76
2023-02-09T03:20:32.858Z,2.73
2023-02-09T03:23:03.415Z,2.65
2023-02-09T03:25:35.399Z,2.73
2023-02-09T03:28:08.404Z,2.69
2023-02-09T03:30:37.953Z,2.70
2023-02-09T03:33:10.398Z,2.69
2023-02-09T03:35:40.245Z,2.70
2023-02-09T03:38:08.072Z,2.71
2023-02-09T03:40:36.201Z,2.64
2023-02-09T03:43:03.947Z,2.73
2023-02-09T03:45:31.714Z,2.71
2023-02-09T03:47:59.417Z,2.74
2023-02-09T03:50:29.862Z,2.69
2023-02-09T03:52:57.546Z,2.71
2023-02-09T03:55:25.389Z,2.74
2023-02-09T03:57:53.245Z,2.73
2023-02-09T04:00:21.510Z,2.75
2023-02-09T04:02:49.360Z,2.67
2023-02-09T04:05:17.122Z,2.68
2023-02-09T04:07:46.364Z,2.68
2023-02-09T04:10:14.114Z,2.68
2023-02-09T04:12:41.817Z,2.68
2023-02-09T04:15:10.571Z,2.64
2023-02-09T04:17:38.393Z,2.66
2023-02-09T04:20:06.908Z,2.59
2023-02-09T04:22:34.712Z,2.64
2023-02-09T04:25:04.145Z,2.54
2023-02-09T04:27:31.923Z,2.58
2023-02-09T04:29:59.709Z,2.59
2023-02-09T04:32:27.438Z,2.54
2023-02-09T04:34:55.228Z,2.53
2023-02-09T04:37:22.934Z,2.59
2023-02-09T04:39:50.700Z,2.53
2023-02-09T04:42:19.851Z,2.53
2023-02-09T04:44:47.569Z,2.56
2023-02-09T04:47:15.299Z,2.51
2023-02-09T04:49:44.456Z,2.50
2023-02-09T04:52:12.345Z,2.52
2023-02-09T04:54:40.092Z,2.51
2023-02-09T04:57:25.224Z,2.43
2023-02-09T04:59:54.297Z,2.43
2023-02-09T05:02:22.067Z,2.41
2023-02-09T05:04:49.781Z,2.39
2023-02-09T05:07:17.528Z,2.36
2023-02-09T05:09:45.233Z,2.38
2023-02-09T05:12:13.058Z,2.41
2023-02-09T05:14:40.863Z,2.40
2023-02-09T05:17:10.008Z,2.36
2023-02-09T05:19:37.858Z,2.35
2023-02-09T05:22:05.656Z,2.36
2023-02-09T05:24:33.417Z,2.31
2023-02-09T05:27:01.185Z,2.22
2023-02-09T05:29:29.048Z,2.28
2023-02-09T05:31:56.899Z,2.27
2023-02-09T05:34:26.121Z,2.26
2023-02-09T05:36:53.819Z,2.26
2023-02-09T05:39:21.792Z,2.21
2023-02-09T05:42:06.843Z,2.17
2023-02-09T05:44:34.651Z,2.20
2023-02-09T05:47:02.390Z,2.23
2023-02-09T05:49:31.580Z,2.19
2023-02-09T05:51:59.286Z,2.19
2023-02-09T05:54:27.093Z,2.18
2023-02-09T05:56:54.814Z,2.17
2023-02-09T05:59:23.193Z,2.22
2023-02-09T06:01:51.300Z,2.18
2023-02-09T06:04:19.096Z,2.18
2023-02-09T06:06:48.380Z,2.19
2023-02-09T06:09:16.270Z,2.18
2023-02-09T06:11:44.013Z,2.16
2023-02-09T06:14:12.266Z,2.11
2023-02-09T06:16:41.609Z,2.20
2023-02-09T06:19:13.519Z,2.12
2023-02-09T06:21:41.311Z,2.13
2023-02-09T06:24:10.521Z,2.10
2023-02-09T06:26:38.462Z,2.09
2023-02-09T06:29:06.199Z,2.07
2023-02-09T06:31:34.100Z,2.04
2023-02-09T06:34:01.952Z,2.11
2023-02-09T06:36:29.708Z,2.03
2023-02-09T06:38:57.555Z,1.98
2023-02-09T06:41:26.759Z,2.03
2023-02-09T06:43:54.742Z,2.02
2023-02-09T06:46:22.575Z,2.02
2023-02-09T06:48:51.113Z,2.05
2023-02-09T06:51:18.973Z,1.98
2023-02-09T06:53:47.109Z,2.04
2023-02-09T06:56:15.245Z,2.00
2023-02-09T06:58:44.439Z,2.06
2023-02-09T07:01:15.654Z,2.06
2023-02-09T07:03:44.136Z,2.05
2023-02-09T07:06:14.176Z,2.06
2023-02-09T07:08:42.564Z,2.08
2023-02-09T07:11:13.007Z,2.11
2023-02-09T07:13:40.859Z,2.07
2023-02-09T07:16:11.936Z,2.06
2023-02-09T07:18:40.828Z,2.10
2023-02-09T07:21:10.466Z,2.06
2023-02-09T07:23:39.049Z,2.01
2023-02-09T07:26:08.568Z,2.10
2023-02-09T07:28:37.138Z,2.12
2023-02-09T07:31:07.200Z,2.14
2023-02-09T07:33:37.265Z,2.22
2023-02-09T07:36:05.793Z,2.26
2023-02-09T07:38:34.829Z,2.22
2023-02-09T07:41:03.908Z,2.28
2023-02-09T07:43:32.088Z,2.16
2023-02-09T07:46:04.808Z,2.27
2023-02-09T07:48:33.116Z,2.26
2023-02-09T07:51:02.256Z,2.30
2023-02-09T07:53:30.061Z,2.32
2023-02-09T07:55:58.134Z,2.36
2023-02-09T07:58:25.873Z,2.36
2023-02-09T08:00:53.655Z,2.42
2023-02-09T08:03:24.956Z,2.49
2023-02-09T08:05:58.467Z,2.47
2023-02-09T08:08:27.601Z,2.49
2023-02-09T08:10:57.824Z,2.51
2023-02-09T08:13:27.359Z,2.51
2023-02-09T08:15:59.372Z,2.57
2023-02-09T08:18:32.911Z,2.53
2023-02-09T08:21:00.899Z,2.63
2023-02-09T08:23:34.640Z,2.60
2023-02-09T08:26:07.492Z,2.72
2023-02-09T08:28:44.145Z,2.78
2023-02-09T08:31:12.910Z,2.77
2023-02-09T08:33:40.799Z,2.82
2023-02-09T08:36:09.056Z,2.90
2023-02-09T08:38:38.455Z,2.87
2023-02-09T08:41:06.961Z,2.89
2023-02-09T08:43:35.407Z,2.93
2023-02-09T08:46:04.187Z,2.97
2023-02-09T08:48:33.749Z,2.98
2023-02-09T08:51:03.156Z,2.96
2023-02-09T08:53:30.925Z,2.98
2023-02-09T08:56:00.474Z,3.10
2023-02-09T08:58:30.177Z,3.15
2023-02-09T09:00:59.929Z,3.09
2023-02-09T09:03:31.343Z,3.08
2023-02-09T09:06:00.627Z,3.15
2023-02-09T09:08:29.102Z,3.27
2023-02-09T09:10:56.918Z,3.29
2023-02-09T09:13:26.719Z,3.36
2023-02-09T09:15:55.758Z,3.38
2023-02-09T09:18:24.204Z,3.45
2023-02-09T09:20:52.310Z,3.51
2023-02-09T09:23:21.137Z,3.50
2023-02-09T09:25:49.460Z,3.51
2023-02-09T09:28:20.315Z,3.50
2023-02-09T09:30:49.415Z,3.56
2023-02-09T09:33:17.203Z,3.63
2023-02-09T09:35:45.144Z,3.64
2023-02-09T09:38:13.143Z,3.70
2023-02-09T09:40:42.860Z,3.79
2023-02-09T09:43:23.328Z,3.81
2023-02-09T09:45:52.623Z,3.88
2023-02-09T09:48:24.902Z,3.99
2023-02-09T09:50:56.813Z,3.99
2023-02-09T09:53:33.034Z,4.13
2023-02-09T09:56:05.124Z,4.34
2023-02-09T09:58:35.190Z,4.35
2023-02-09T10:01:04.506Z,4.43
2023-02-09T10:03:32.353Z,4.47
2023-02-09T10:06:02.850Z,4.58
2023-02-09T10:08:34.371Z,4.56
2023-02-09T10:11:05.806Z,4.62
2023-02-09T10:13:36.678Z,4.75
2023-02-09T10:16:16.091Z,4.88
2023-02-09T10:18:44.518Z,4.98
2023-02-09T10:21:15.462Z,5.11
2023-02-09T10:23:45.664Z,5.13
2023-02-09T10:26:24.522Z,5.27
2023-02-09T10:28:54.278Z,5.29
2023-02-09T10:31:26.156Z,5.49
2023-02-09T10:33:59.494Z,5.63
2023-02-09T10:36:30.294Z,5.74
2023-02-09T10:39:13.826Z,5.89
2023-02-09T10:41:43.860Z,5.97
2023-02-09T10:44:20.151Z,5.94
2023-02-09T10:46:49.559Z,6.08
2023-02-09T10:49:32.448Z,6.19
2023-02-09T10:52:08.067Z,6.20
2023-02-09T10:54:35.813Z,6.21
2023-02-09T10:57:03.613Z,6.24
2023-02-09T10:59:31.548Z,6.30
2023-02-09T11:02:03.197Z,6.30
2023-02-09T11:04:39.311Z,6.39
2023-02-09T11:07:12.026Z,6.43
2023-02-09T11:09:45.491Z,6.45
2023-02-09T11:12:13.909Z,6.62
2023-02-09T11:14:42.892Z,6.80
2023-02-09T11:17:17.474Z,6.85
2023-02-09T11:20:20.786Z,6.97
2023-02-09T11:23:15.113Z,7.13
2023-02-09T11:25:51.149Z,7.13
2023-02-09T11:28:36.060Z,7.09
2023-02-09T11:31:33.628Z,7.16
2023-02-09T11:34:13.260Z,7.15
2023-02-09T11:36:49.338Z,7.17
2023-02-09T11:39:23.168Z,7.19
2023-02-09T11:42:13.980Z,7.21
2023-02-09T11:44:47.995Z,7.19
2023-02-09T11:47:20.374Z,7.31
2023-02-09T11:49:51.944Z,7.28
2023-02-09T11:52:26.043Z,7.31
2023-02-09T11:55:00.584Z,7.27
2023-02-09T11:57:36.223Z,7.25
2023-02-09T12:00:08.082Z,7.29
2023-02-09T12:02:52.121Z,7.40
2023-02-09T12:05:22.786Z,7.56
2023-02-09T12:08:14.020Z,7.62
2023-02-09T12:10:48.524Z,7.67
2023-02-09T12:13:34.010Z,7.70
2023-02-09T12:16:05.485Z,7.82
2023-02-09T12:18:36.375Z,7.75
2023-02-09T12:21:08.290Z,7.90
2023-02-09T12:23:37.070Z,7.97
2023-02-09T12:26:43.413Z,8.06
2023-02-09T12:29:27.416Z,8.13
2023-02-09T12:32:26.510Z,8.19
2023-02-09T12:34:56.337Z,8.31
2023-02-09T12:37:28.082Z,8.21
2023-02-09T12:40:18.877Z,8.27
2023-02-09T12:43:04.301Z,8.44
2023-02-09T12:45:35.578Z,8.48
2023-02-09T12:48:14.339Z,8.33
2023-02-09T12:50:52.413Z,8.31
2023-02-09T12:56:31.804Z,8.20
2023-02-09T12:59:20.647Z,8.07
2023-02-09T13:02:18.090Z,7.95
2023-02-09T13:05:03.446Z,7.92
2023-02-09T13:07:42.182Z,7.82
2023-02-09T13:10:26.528Z,7.82
2023-02-09T13:12:59.540Z,7.80
2023-02-09T13:15:33.957Z,7.75
2023-02-09T13:18:09.951Z,7.81
2023-02-09T13:21:14.022Z,7.84
2023-02-09T13:23:55.027Z,7.72
2023-02-09T13:26:25.785Z,7.68
2023-02-09T13:29:19.911Z,7.70
2023-02-09T13:31:58.755Z,7.74
2023-02-09T13:34:35.528Z,7.72
2023-02-09T13:37:14.681Z,7.69
2023-02-09T13:39:44.172Z,7.72
2023-02-09T13:42:20.591Z,7.67
2023-02-09T13:44:52.486Z,7.70
2023-02-09T13:47:20.543Z,7.86
2023-02-09T13:49:59.745Z,7.96
2023-02-09T13:52:33.748Z,8.05
2023-02-09T13:55:12.555Z,8.03
2023-02-09T13:57:43.397Z,8.06
2023-02-09T14:00:24.835Z,7.99
2023-02-09T14:02:56.597Z,7.91
2023-02-09T14:05:33.870Z,7.89
2023-02-09T14:08:02.207Z,7.85
2023-02-09T14:10:31.111Z,7.84
2023-02-09T14:13:03.679Z,7.90
2023-02-09T14:15:55.794Z,7.95
2023-02-09T14:18:43.052Z,7.96
2023-02-09T14:21:27.082Z,8.01
2023-02-09T14:24:14.983Z,8.02
2023-02-09T14:26:46.997Z,8.03
2023-02-09T14:29:19.066Z,8.01
2023-02-09T14:31:50.246Z,7.95
2023-02-09T14:34:39.858Z,7.99
2023-02-09T14:37:30.767Z,7.90
2023-02-09T14:40:01.892Z,7.91
2023-02-09T14:42:30.342Z,7.90
2023-02-09T14:44:59.972Z,7.86
2023-02-09T14:47:39.441Z,7.87
2023-02-09T14:50:09.043Z,7.71
2023-02-09T14:52:38.948Z,7.73
2023-02-09T14:55:09.300Z,7.72
2023-02-09T14:57:39.658Z,7.72
2023-02-09T15:00:17.999Z,7.67
2023-02-09T15:02:47.382Z,7.65
2023-02-09T15:05:15.752Z,7.61
2023-02-09T15:07:47.045Z,7.59
2023-02-09T15:10:21.711Z,7.60
2023-02-09T15:12:49.667Z,7.53
2023-02-09T15:15:19.949Z,7.52
2023-02-09T15:17:49.181Z,7.49
2023-02-09T15:20:18.403Z,7.48
2023-02-09T15:22:46.142Z,7.38
2023-02-09T15:25:15.104Z,7.29
2023-02-09T15:27:51.241Z,7.21
2023-02-09T15:30:21.901Z,7.10
2023-02-09T15:32:51.546Z,7.12
2023-02-09T15:35:22.046Z,7.00
2023-02-09T15:37:53.342Z,7.02
2023-02-09T15:40:45.477Z,7.02
2023-02-09T15:43:32.805Z,6.93
2023-02-09T15:46:21.008Z,6.90
2023-02-09T15:48:50.213Z,6.84
2023-02-09T15:51:18.429Z,6.78
2023-02-09T15:53:47.162Z,6.70
2023-02-09T15:56:15.858Z,6.70
2023-02-09T15:58:45.803Z,6.58
2023-02-09T16:01:15.526Z,6.51
2023-02-09T16:03:43.976Z,6.40
2023-02-09T16:06:17.061Z,6.38
2023-02-09T16:08:47.690Z,6.33
2023-02-09T16:11:20.563Z,6.30
2023-02-09T16:13:48.540Z,6.21
2023-02-09T16:16:17.880Z,6.12
2023-02-09T16:18:47.251Z,6.08
2023-02-09T16:21:24.248Z,6.01
2023-02-09T16:23:53.742Z,5.91
2023-02-09T16:26:21.472Z,5.89
2023-02-09T16:28:49.259Z,5.77
2023-02-09T16:31:19.395Z,5.78
2023-02-09T16:33:47.717Z,5.64
2023-02-09T16:36:18.992Z,5.60
2023-02-09T16:38:48.322Z,5.54
2023-02-09T16:41:36.174Z,5.37
2023-02-09T16:44:15.316Z,5.40
2023-02-09T16:46:43.267Z,5.38
2023-02-09T16:49:25.757Z,5.28
2023-02-09T16:51:54.149Z,5.23
2023-02-09T16:54:23.403Z,5.22
2023-02-09T16:56:54.472Z,5.11
2023-02-09T16:59:22.601Z,5.09
2023-02-09T17:01:50.472Z,5.01
2023-02-09T17:04:18.381Z,4.99
2023-02-09T17:06:47.724Z,4.92
2023-02-09T17:09:16.502Z,4.82
2023-02-09T17:11:45.610Z,4.77
2023-02-09T17:14:13.428Z,4.77
2023-02-09T17:16:44.714Z,4.78
2023-02-09T17:19:16.081Z,4.70
2023-02-09T17:21:43.804Z,4.64
2023-02-09T17:24:16.753Z,4.63
2023-02-09T17:26:46.110Z,4.66
2023-02-09T17:29:20.080Z,4.58
2023-02-09T17:31:53.679Z,4.58
2023-02-09T17:34:26.960Z,4.45
2023-02-09T17:37:00.846Z,4.37
2023-02-09T17:39:30.746Z,4.35
2023-02-09T17:42:01.029Z,4.30
2023-02-09T17:44:45.077Z,4.28
2023-02-09T17:47:16.490Z,4.27
2023-02-09T17:49:44.558Z,4.20
2023-02-09T17:52:17.072Z,4.18
2023-02-09T17:54:45.478Z,4.16
2023-02-09T17:57:15.582Z,4.24
2023-02-09T17:59:44.022Z,4.24
2023-02-09T18:02:16.657Z,4.23
2023-02-09T18:04:45.262Z,4.14
2023-02-09T18:07:14.444Z,4.17
2023-02-09T18:09:42.155Z,4.13
2023-02-09T18:12:19.248Z,4.17
2023-02-09T18:14:47.292Z,4.03
2023-02-09T18:17:15.066Z,4.04
2023-02-09T18:19:42.784Z,4.00
2023-02-09T18:22:13.598Z,3.99
2023-02-09T18:24:41.784Z,3.96
2023-02-09T18:27:12.605Z,3.93
2023-02-09T18:29:41.783Z,3.86
2023-02-09T18:32:12.647Z,3.85
2023-02-09T18:34:40.446Z,3.83
2023-02-09T18:37:08.193Z,3.86
2023-02-09T18:39:38.550Z,3.96
2023-02-09T18:42:08.094Z,3.98
2023-02-09T18:44:36.087Z,4.02
2023-02-09T18:47:05.688Z,4.14
2023-02-09T18:49:33.440Z,4.21
2023-02-09T18:52:02.374Z,4.24
2023-02-09T18:54:31.223Z,4.31
2023-02-09T18:56:58.972Z,4.33
2023-02-09T18:59:29.410Z,4.36
2023-02-09T19:01:57.264Z,4.40
2023-02-09T19:04:26.467Z,4.45
2023-02-09T19:06:54.390Z,4.49
2023-02-09T19:09:22.125Z,4.52
2023-02-09T19:11:49.867Z,4.57
2023-02-09T19:14:34.946Z,4.64
2023-02-09T19:17:02.739Z,4.69
2023-02-09T19:19:31.861Z,4.68
2023-02-09T19:22:00.290Z,4.65
2023-02-09T19:24:28.795Z,4.73
2023-02-09T19:26:56.679Z,4.72
2023-02-09T19:29:25.884Z,4.78
2023-02-09T19:31:55.621Z,4.76
2023-02-09T19:34:23.766Z,4.76
2023-02-09T19:36:52.946Z,4.78
2023-02-09T19:39:20.661Z,4.84
2023-02-09T19:41:49.087Z,4.90
2023-02-09T19:44:16.924Z,4.95
2023-02-09T19:46:45.549Z,4.90
2023-02-09T19:49:13.422Z,4.94
2023-02-09T19:51:41.155Z,4.97
2023-02-09T19:54:10.312Z,5.00
2023-02-09T19:56:38.250Z,4.89
2023-02-09T19:59:06.012Z,4.99
2023-02-09T20:01:34.119Z,5.00
2023-02-09T20:04:01.953Z,5.03
2023-02-09T20:06:31.075Z,5.03
2023-02-09T20:09:00.172Z,5.02
2023-02-09T20:11:29.554Z,5.02
2023-02-09T20:13:57.353Z,5.06
2023-02-09T20:16:27.585Z,5.04
2023-02-09T20:18:55.873Z,5.06
2023-02-09T20:21:24.863Z,4.97
2023-02-09T20:23:55.722Z,5.04
2023-02-09T20:26:26.652Z,5.12
2023-02-09T20:28:56.834Z,5.15
2023-02-09T20:31:28.036Z,5.13
2023-02-09T20:33:56.384Z,5.16
2023-02-09T20:36:25.626Z,5.15
2023-02-09T20:38:53.686Z,5.15
2023-02-09T20:41:21.468Z,5.19
2023-02-09T20:44:07.000Z,5.23
2023-02-09T20:46:55.862Z,5.18
2023-02-09T20:49:25.791Z,5.21
2023-02-09T20:51:53.807Z,5.25
2023-02-09T20:54:21.682Z,5.24
2023-02-09T20:56:49.422Z,5.26
2023-02-09T20:59:17.991Z,5.24
2023-02-09T21:01:47.946Z,5.26
2023-02-09T21:04:16.409Z,5.28
2023-02-09T21:06:44.154Z,5.29
2023-02-09T21:09:15.364Z,5.28
2023-02-09T21:11:43.492Z,5.29
2023-02-09T21:14:21.786Z,5.31
2023-02-09T21:16:57.192Z,5.25
2023-02-09T21:19:25.292Z,5.35
2023-02-09T21:21:53.408Z,5.35
2023-02-09T21:24:21.821Z,5.36
2023-02-09T21:26:49.581Z,5.35
2023-02-09T21:29:17.361Z,5.36
2023-02-09T21:31:45.815Z,5.34
2023-02-09T21:34:16.233Z,5.31
2023-02-09T21:36:44.303Z,5.31
2023-02-09T21:39:12.360Z,5.27
2023-02-09T21:41:57.529Z,5.29
2023-02-09T21:44:25.244Z,5.27
2023-02-09T21:46:53.873Z,5.25
2023-02-09T21:49:23.105Z,5.24
2023-02-09T21:51:50.887Z,5.28
2023-02-09T21:54:19.564Z,5.31
2023-02-09T21:56:47.296Z,5.33
2023-02-09T21:59:16.229Z,5.33
2023-02-09T22:01:43.942Z,5.39
2023-02-09T22:04:11.696Z,5.37
2023-02-09T22:06:41.678Z,5.39
2023-02-09T22:09:09.623Z,5.42
2023-02-09T22:11:37.375Z,5.40
2023-02-09T22:14:05.189Z,5.39
2023-02-09T22:16:33.310Z,5.39
2023-02-09T22:19:01.200Z,5.38
2023-02-09T22:21:29.088Z,5.41
2023-02-09T22:23:58.204Z,5.40
2023-02-09T22:26:26.031Z,5.34
2023-02-09T22:28:53.755Z,5.36
2023-02-09T22:31:22.683Z,5.37
2023-02-09T22:33:54.198Z,5.39
2023-02-09T22:36:23.290Z,5.38
2023-02-09T22:38:51.587Z,5.38
2023-02-09T22:41:22.968Z,5.27
2023-02-09T22:43:52.034Z,5.38
2023-02-09T22:46:20.693Z,5.34
2023-02-09T22:48:52.325Z,5.33
2023-02-09T22:51:20.095Z,5.33
2023-02-09T22:53:48.090Z,5.33
2023-02-09T22:56:16.129Z,5.34
2023-02-09T22:58:45.171Z,5.34
2023-02-09T23:01:13.121Z,5.34
2023-02-09T23:03:41.518Z,5.35
2023-02-09T23:06:15.715Z,5.37
2023-02-09T23:08:43.477Z,5.37
2023-02-09T23:11:13.936Z,5.39
2023-02-09T23:13:42.307Z,5.41
2023-02-09T23:16:13.915Z,5.46
2023-02-09T23:18:46.597Z,5.41
2023-02-09T23:21:14.446Z,5.43
2023-02-09T23:23:42.377Z,5.41
2023-02-09T23:26:10.621Z,5.41
2023-02-09T23:28:38.412Z,5.44
2023-02-09T23:31:06.725Z,5.40
2023-02-09T23:33:37.161Z,5.40
2023-02-09T23:36:05.985Z,5.40
2023-02-09T23:38:33.788Z,5.42
2023-02-09T23:41:06.826Z,5.39
2023-02-09T23:43:34.873Z,5.42
2023-02-09T23:46:03.152Z,5.41
2023-02-09T23:48:30.930Z,5.41
2023-02-09T23:51:00.822Z,5.41
2023-02-09T23:53:29.036Z,5.38
2023-02-09T23:56:03.558Z,5.38
2023-02-09T23:58:32.430Z,5.37
